Terminal Aerodrome Forecast
Issued by NWS

Home | Current Version | Previous Version | Text Only | Print | Product List | Glossary On
Versions: 1 2 3 4 5 6 7 8 9 10 11 12 13
000
FTUS42 TJSJ 271700
TAFISX
TAF
TISX 271738Z 2718/2818 07013G20KT P6SM VCSH SCT025 SCT040
     FM272300 06006KT P6SM FEW025
     FM281300 11013KT P6SM SCT025=

USA.gov is the U.S. government's official web portal to all federal, state and local government web resources and services.